Campanya meteocatpedra

Dades EMA Sasseuva (2.228 m)

?
?
Resum diari 22:30 TU
Dades diàries de l'estació meteorològica
Temperatura mitjana 11.5 °C
Temperatura màxima 15.5 °C 13:39 TU
Temperatura mínima 7.0 °C 0:07 TU
Humitat relativa mitjana 61%
Precipitació acumulada 0.0 mm
Gruix de neu màxim 0 cm
Ratxa màxima del vent (6 m) 17.6 km/h - 326º 13:15 TU
Irradiació solar global 32.8 MJ/m2

El tram horari està expressat en Temps Universal (TU). Cal sumar una hora en horari d'hivern i dues en horari d'estiu per passar a l'hora oficial.

Sasseuva (2.228 m)

Metadades estació meteorol´gica
Municipi Arres
Comarca Val d'Aran
Altitud 2228 m
Data alta 20.09.2001
Estat actual Operativa
Dades de període
Període
TU
TM
°C
TX
°C
TN
°C
HRM
%
PPT
mm
GN
cm
VVM (6 m)
km/h
DVM (6 m)
graus
VVX (6 m)
km/h
RS
W/m2
00:00 - 00:30 7.2 7.6 7.0 69 0.0 0 0.7 59 4.0 0
00:30 - 01:00 7.9 8.2 7.6 64 0.0 0 0.4 68 2.5 0
01:00 - 01:30 7.8 8.2 7.5 64 0.0 0 0.0 76 1.4 0
01:30 - 02:00 7.7 7.9 7.5 64 0.0 0 0.4 52 5.8 0
02:00 - 02:30 7.8 8.2 7.3 60 0.0 0 1.4 51 6.1 0
02:30 - 03:00 7.8 8.3 7.4 57 0.0 0 0.4 67 5.0 0
03:00 - 03:30 8.1 8.7 7.9 50 0.0 0 0.0 248 2.9 0
03:30 - 04:00 9.0 9.4 8.7 42 0.0 0 1.1 143 4.3 0
04:00 - 04:30 8.8 9.5 8.3 41 0.0 0 1.4 77 5.0 0
04:30 - 05:00 9.2 9.5 8.8 42 0.0 0 0.7 117 2.9 9
05:00 - 05:30 9.4 9.9 9.0 43 0.0 0 1.4 98 3.2 21
05:30 - 06:00 10.3 11.7 9.9 40 0.0 0 0.0 88 1.1 147
06:00 - 06:30 12.4 12.7 11.2 37 0.0 0 0.0 0 0.0 275
06:30 - 07:00 11.1 11.9 10.6 41 0.0 0 0.4 302 3.2 380
07:00 - 07:30 11.7 12.6 11.1 39 0.0 0 0.4 249 2.9 484
07:30 - 08:00 11.7 12.4 10.9 42 0.0 0 0.4 338 3.2 583
08:00 - 08:30 11.8 12.1 11.7 44 0.0 0 0.7 24 4.0 676
08:30 - 09:00 11.7 12.2 11.4 48 0.0 0 1.8 356 5.4 764
09:00 - 09:30 12.3 12.5 12.0 46 0.0 0 1.4 355 6.5 839
09:30 - 10:00 12.8 13.4 12.2 42 0.0 0 1.8 0 6.5 904
10:00 - 10:30 13.1 13.5 12.9 44 0.0 0 2.2 3 7.9 957
10:30 - 11:00 13.6 14.0 13.0 48 0.0 0 2.5 351 9.0 995
11:00 - 11:30 13.5 13.8 13.2 52 0.0 (s/d) 4.3 332 9.7 1.002
11:30 - 12:00 13.4 14.0 13.0 55 0.0 (s/d) 6.1 325 13.3 1.036
12:00 - 12:30 13.8 14.1 13.5 54 0.0 (s/d) 5.8 321 12.6 1.043
12:30 - 13:00 14.4 15.0 13.7 54 0.0 (s/d) 6.1 315 13.3 1.024
13:00 - 13:30 14.4 14.9 13.8 59 0.0 (s/d) 6.8 309 17.6 946
13:30 - 14:00 15.3 15.5 14.8 64 0.0 (s/d) 6.1 292 14.0 1.038
14:00 - 14:30 15.1 15.4 14.9 65 0.0 (s/d) 6.8 290 14.4 954
14:30 - 15:00 15.0 15.4 14.5 67 0.0 (s/d) 7.2 296 16.9 860
15:00 - 15:30 14.9 15.3 14.2 70 0.0 (s/d) 6.5 304 12.6 845
15:30 - 16:00 14.8 15.3 13.9 77 0.0 (s/d) 7.6 297 15.5 704
16:00 - 16:30 13.8 14.4 13.3 80 0.0 (s/d) 6.8 309 14.0 538
16:30 - 17:00 13.6 14.3 13.3 78 0.0 (s/d) 7.2 314 14.4 497
17:00 - 17:30 13.2 14.2 12.4 84 0.0 (s/d) 5.8 309 11.5 334
17:30 - 18:00 12.4 12.7 12.1 85 0.0 (s/d) 5.0 324 9.7 188
18:00 - 18:30 12.0 12.3 11.5 90 0.0 (s/d) 3.6 330 9.0 134
18:30 - 19:00 12.0 12.2 11.6 85 0.0 (s/d) 0.7 348 5.8 60
19:00 - 19:30 11.1 11.8 10.4 90 0.0 (s/d) 0.0 0 0.0 6
19:30 - 20:00 10.4 10.5 10.1 93 0.0 (s/d) 0.4 171 2.5 0
20:00 - 20:30 10.5 10.8 10.0 80 0.0 (s/d) 0.4 194 2.9 0
20:30 - 21:00 10.6 10.8 10.4 78 0.0 (s/d) 0.4 197 2.2 0
21:00 - 21:30 10.7 11.1 10.5 75 0.0 (s/d) 0.4 128 2.9 0
21:30 - 22:00 10.9 11.1 10.7 76 0.0 (s/d) 0.0 193 0.0 0
22:00 - 22:30 11.0 11.1 10.7 75 0.0 (s/d) 0.4 229 3.2 0
22:30 - 23:00 11.1 11.2 11.0 73 0.0 (s/d) 2.2 241 4.3 0

Les dades en taronja només han passat un control de qualitat automàtic. Resta pendent la seva validació definitiva.